sensor_id;sensor_type;location;lat;lon;timestamp;P1;durP1;ratioP1;P2;durP2;ratioP2
52414;SDS011;38340;52.964;6.086;2023-06-04T00:00:25;27.50;;;17.40;;
52414;SDS011;38340;52.964;6.086;2023-06-04T00:02:51;26.30;;;15.05;;
52414;SDS011;38340;52.964;6.086;2023-06-04T00:05:16;22.90;;;15.38;;
52414;SDS011;38340;52.964;6.086;2023-06-04T00:07:42;21.35;;;14.13;;
52414;SDS011;38340;52.964;6.086;2023-06-04T00:10:08;19.25;;;13.00;;
52414;SDS011;38340;52.964;6.086;2023-06-04T00:12:35;19.52;;;11.00;;
52414;SDS011;38340;52.964;6.086;2023-06-04T00:15:00;15.05;;;10.35;;
52414;SDS011;38340;52.964;6.086;2023-06-04T00:17:26;18.05;;;10.25;;
52414;SDS011;38340;52.964;6.086;2023-06-04T00:19:52;13.57;;;8.95;;
52414;SDS011;38340;52.964;6.086;2023-06-04T00:22:18;15.73;;;9.02;;
52414;SDS011;38340;52.964;6.086;2023-06-04T00:24:43;14.32;;;8.30;;
52414;SDS011;38340;52.964;6.086;2023-06-04T00:27:09;16.48;;;8.27;;
52414;SDS011;38340;52.964;6.086;2023-06-04T00:29:35;12.70;;;8.15;;
52414;SDS011;38340;52.964;6.086;2023-06-04T00:32:02;10.55;;;7.47;;
52414;SDS011;38340;52.964;6.086;2023-06-04T00:34:28;12.93;;;7.80;;
52414;SDS011;38340;52.964;6.086;2023-06-04T00:36:53;12.70;;;7.88;;
52414;SDS011;38340;52.964;6.086;2023-06-04T00:39:19;13.32;;;8.93;;
52414;SDS011;38340;52.964;6.086;2023-06-04T00:41:45;14.40;;;10.18;;
52414;SDS011;38340;52.964;6.086;2023-06-04T00:44:11;14.70;;;10.68;;
52414;SDS011;38340;52.964;6.086;2023-06-04T00:46:37;17.02;;;9.45;;
52414;SDS011;38340;52.964;6.086;2023-06-04T00:49:04;14.15;;;9.30;;
52414;SDS011;38340;52.964;6.086;2023-06-04T00:51:31;12.98;;;8.55;;
52414;SDS011;38340;52.964;6.086;2023-06-04T00:53:57;13.77;;;8.10;;
52414;SDS011;38340;52.964;6.086;2023-06-04T00:56:24;13.60;;;8.30;;
52414;SDS011;38340;52.964;6.086;2023-06-04T00:58:49;12.77;;;8.30;;
52414;SDS011;38340;52.964;6.086;2023-06-04T01:03:52;10.88;;;8.13;;
52414;SDS011;38340;52.964;6.086;2023-06-04T01:06:37;11.30;;;8.10;;
52414;SDS011;38340;52.964;6.086;2023-06-04T01:09:07;17.10;;;10.40;;
52414;SDS011;38340;52.964;6.086;2023-06-04T01:11:39;14.15;;;10.15;;
52414;SDS011;38340;52.964;6.086;2023-06-04T01:14:06;12.93;;;8.80;;
52414;SDS011;38340;52.964;6.086;2023-06-04T01:16:57;17.92;;;9.30;;
52414;SDS011;38340;52.964;6.086;2023-06-04T01:25:43;12.95;;;8.52;;
52414;SDS011;38340;52.964;6.086;2023-06-04T01:28:14;14.80;;;9.20;;
52414;SDS011;38340;52.964;6.086;2023-06-04T01:30:42;13.07;;;9.73;;
52414;SDS011;38340;52.964;6.086;2023-06-04T01:33:15;14.15;;;8.77;;
52414;SDS011;38340;52.964;6.086;2023-06-04T01:35:42;14.55;;;9.13;;
52414;SDS011;38340;52.964;6.086;2023-06-04T01:38:08;16.80;;;9.20;;
52414;SDS011;38340;52.964;6.086;2023-06-04T01:40:35;15.65;;;9.07;;
52414;SDS011;38340;52.964;6.086;2023-06-04T01:43:01;12.23;;;9.18;;
52414;SDS011;38340;52.964;6.086;2023-06-04T01:45:27;14.55;;;8.57;;
52414;SDS011;38340;52.964;6.086;2023-06-04T01:47:54;15.18;;;9.13;;
52414;SDS011;38340;52.964;6.086;2023-06-04T01:50:20;15.65;;;9.18;;
52414;SDS011;38340;52.964;6.086;2023-06-04T01:52:46;13.95;;;8.45;;
52414;SDS011;38340;52.964;6.086;2023-06-04T01:55:13;12.93;;;7.95;;
52414;SDS011;38340;52.964;6.086;2023-06-04T01:57:40;15.75;;;9.15;;
52414;SDS011;38340;52.964;6.086;2023-06-04T02:00:07;15.25;;;8.30;;
52414;SDS011;38340;52.964;6.086;2023-06-04T02:02:35;13.38;;;8.77;;
52414;SDS011;38340;52.964;6.086;2023-06-04T02:05:03;15.68;;;8.52;;
52414;SDS011;38340;52.964;6.086;2023-06-04T02:07:29;11.60;;;8.20;;
52414;SDS011;38340;52.964;6.086;2023-06-04T02:09:56;13.95;;;9.02;;
52414;SDS011;38340;52.964;6.086;2023-06-04T02:12:22;17.08;;;9.65;;
52414;SDS011;38340;52.964;6.086;2023-06-04T02:14:47;12.88;;;8.80;;
52414;SDS011;38340;52.964;6.086;2023-06-04T02:17:13;13.05;;;8.68;;
52414;SDS011;38340;52.964;6.086;2023-06-04T02:19:44;14.95;;;9.48;;
52414;SDS011;38340;52.964;6.086;2023-06-04T02:22:11;16.70;;;9.57;;
52414;SDS011;38340;52.964;6.086;2023-06-04T02:24:37;18.20;;;10.20;;
52414;SDS011;38340;52.964;6.086;2023-06-04T02:27:04;14.68;;;9.45;;
52414;SDS011;38340;52.964;6.086;2023-06-04T02:29:31;15.35;;;9.77;;
52414;SDS011;38340;52.964;6.086;2023-06-04T02:31:57;14.18;;;9.45;;
52414;SDS011;38340;52.964;6.086;2023-06-04T02:34:22;16.63;;;9.20;;
52414;SDS011;38340;52.964;6.086;2023-06-04T02:36:48;16.42;;;9.95;;
52414;SDS011;38340;52.964;6.086;2023-06-04T02:39:16;16.15;;;9.80;;
52414;SDS011;38340;52.964;6.086;2023-06-04T02:41:42;15.32;;;9.57;;
52414;SDS011;38340;52.964;6.086;2023-06-04T02:44:08;14.80;;;9.27;;
52414;SDS011;38340;52.964;6.086;2023-06-04T02:46:34;16.48;;;8.82;;
52414;SDS011;38340;52.964;6.086;2023-06-04T02:48:59;16.50;;;9.63;;
52414;SDS011;38340;52.964;6.086;2023-06-04T02:51:25;13.90;;;8.60;;
52414;SDS011;38340;52.964;6.086;2023-06-04T02:53:51;15.43;;;8.95;;
52414;SDS011;38340;52.964;6.086;2023-06-04T02:56:17;16.13;;;9.77;;
52414;SDS011;38340;52.964;6.086;2023-06-04T02:58:49;13.38;;;9.35;;
52414;SDS011;38340;52.964;6.086;2023-06-04T03:01:20;15.88;;;8.95;;
52414;SDS011;38340;52.964;6.086;2023-06-04T03:03:47;11.95;;;9.35;;
52414;SDS011;38340;52.964;6.086;2023-06-04T03:06:14;14.15;;;9.52;;
52414;SDS011;38340;52.964;6.086;2023-06-04T03:08:41;11.77;;;9.02;;
52414;SDS011;38340;52.964;6.086;2023-06-04T03:11:07;15.05;;;8.82;;
52414;SDS011;38340;52.964;6.086;2023-06-04T03:13:33;15.20;;;9.45;;
52414;SDS011;38340;52.964;6.086;2023-06-04T03:16:00;15.23;;;9.43;;
52414;SDS011;38340;52.964;6.086;2023-06-04T03:18:27;12.55;;;9.00;;
52414;SDS011;38340;52.964;6.086;2023-06-04T03:20:53;20.95;;;11.10;;
52414;SDS011;38340;52.964;6.086;2023-06-04T03:23:20;17.10;;;11.15;;
52414;SDS011;38340;52.964;6.086;2023-06-04T03:25:46;22.40;;;14.45;;
52414;SDS011;38340;52.964;6.086;2023-06-04T03:28:12;31.90;;;22.02;;
52414;SDS011;38340;52.964;6.086;2023-06-04T03:30:39;31.98;;;23.65;;
52414;SDS011;38340;52.964;6.086;2023-06-04T03:33:05;33.45;;;22.80;;
52414;SDS011;38340;52.964;6.086;2023-06-04T03:35:31;30.52;;;21.15;;
52414;SDS011;38340;52.964;6.086;2023-06-04T03:37:56;26.25;;;18.55;;
52414;SDS011;38340;52.964;6.086;2023-06-04T03:40:22;26.17;;;14.63;;
52414;SDS011;38340;52.964;6.086;2023-06-04T03:42:48;20.52;;;13.88;;
52414;SDS011;38340;52.964;6.086;2023-06-04T03:45:13;19.40;;;12.77;;
52414;SDS011;38340;52.964;6.086;2023-06-04T03:47:39;21.20;;;12.95;;
52414;SDS011;38340;52.964;6.086;2023-06-04T03:50:05;21.70;;;13.15;;
52414;SDS011;38340;52.964;6.086;2023-06-04T03:52:38;19.75;;;12.80;;
52414;SDS011;38340;52.964;6.086;2023-06-04T03:55:03;16.60;;;11.38;;
52414;SDS011;38340;52.964;6.086;2023-06-04T03:57:29;15.57;;;11.13;;
52414;SDS011;38340;52.964;6.086;2023-06-04T03:59:56;17.98;;;11.65;;
52414;SDS011;38340;52.964;6.086;2023-06-04T04:02:21;16.38;;;11.70;;
52414;SDS011;38340;52.964;6.086;2023-06-04T04:04:47;17.35;;;11.35;;
52414;SDS011;38340;52.964;6.086;2023-06-04T04:07:13;17.50;;;11.45;;
52414;SDS011;38340;52.964;6.086;2023-06-04T04:09:40;16.48;;;11.43;;
52414;SDS011;38340;52.964;6.086;2023-06-04T04:12:06;27.90;;;12.25;;
52414;SDS011;38340;52.964;6.086;2023-06-04T04:14:32;19.23;;;12.48;;
52414;SDS011;38340;52.964;6.086;2023-06-04T04:16:57;22.05;;;11.43;;
52414;SDS011;38340;52.964;6.086;2023-06-04T04:19:24;16.85;;;11.60;;
52414;SDS011;38340;52.964;6.086;2023-06-04T04:21:50;20.00;;;12.38;;
52414;SDS011;38340;52.964;6.086;2023-06-04T04:24:23;15.00;;;11.65;;
52414;SDS011;38340;52.964;6.086;2023-06-04T04:26:50;23.65;;;13.57;;
52414;SDS011;38340;52.964;6.086;2023-06-04T04:29:19;20.35;;;12.88;;
52414;SDS011;38340;52.964;6.086;2023-06-04T04:31:48;18.98;;;11.52;;
52414;SDS011;38340;52.964;6.086;2023-06-04T04:34:14;19.33;;;11.75;;
52414;SDS011;38340;52.964;6.086;2023-06-04T04:36:40;22.35;;;11.38;;
52414;SDS011;38340;52.964;6.086;2023-06-04T04:39:06;20.23;;;10.93;;
52414;SDS011;38340;52.964;6.086;2023-06-04T04:41:33;19.90;;;10.73;;
52414;SDS011;38340;52.964;6.086;2023-06-04T04:44:05;14.63;;;9.90;;
52414;SDS011;38340;52.964;6.086;2023-06-04T04:46:30;14.13;;;9.98;;
52414;SDS011;38340;52.964;6.086;2023-06-04T04:48:56;18.60;;;9.65;;
52414;SDS011;38340;52.964;6.086;2023-06-04T04:51:22;14.02;;;8.88;;
52414;SDS011;38340;52.964;6.086;2023-06-04T04:53:48;18.48;;;9.60;;
52414;SDS011;38340;52.964;6.086;2023-06-04T04:56:13;19.30;;;9.70;;
52414;SDS011;38340;52.964;6.086;2023-06-04T04:58:39;16.55;;;9.02;;
52414;SDS011;38340;52.964;6.086;2023-06-04T05:01:05;18.95;;;8.73;;
52414;SDS011;38340;52.964;6.086;2023-06-04T05:03:31;14.32;;;8.73;;
52414;SDS011;38340;52.964;6.086;2023-06-04T05:05:56;13.38;;;7.95;;
52414;SDS011;38340;52.964;6.086;2023-06-04T05:08:22;15.95;;;8.85;;
52414;SDS011;38340;52.964;6.086;2023-06-04T05:10:49;12.52;;;8.77;;
52414;SDS011;38340;52.964;6.086;2023-06-04T05:13:16;14.15;;;8.48;;
52414;SDS011;38340;52.964;6.086;2023-06-04T05:15:42;14.30;;;8.20;;
52414;SDS011;38340;52.964;6.086;2023-06-04T05:18:08;15.05;;;8.13;;
52414;SDS011;38340;52.964;6.086;2023-06-04T05:20:34;12.98;;;7.75;;
52414;SDS011;38340;52.964;6.086;2023-06-04T05:23:03;16.67;;;7.60;;
52414;SDS011;38340;52.964;6.086;2023-06-04T05:25:29;15.50;;;8.15;;
52414;SDS011;38340;52.964;6.086;2023-06-04T05:27:56;13.55;;;6.97;;
52414;SDS011;38340;52.964;6.086;2023-06-04T05:30:22;10.40;;;7.78;;
52414;SDS011;38340;52.964;6.086;2023-06-04T05:32:47;9.75;;;7.40;;
52414;SDS011;38340;52.964;6.086;2023-06-04T05:35:15;13.48;;;8.18;;
52414;SDS011;38340;52.964;6.086;2023-06-04T05:37:42;14.52;;;7.95;;
52414;SDS011;38340;52.964;6.086;2023-06-04T05:40:10;11.88;;;7.10;;
52414;SDS011;38340;52.964;6.086;2023-06-04T05:42:36;11.40;;;7.63;;
52414;SDS011;38340;52.964;6.086;2023-06-04T05:45:03;10.27;;;7.10;;
52414;SDS011;38340;52.964;6.086;2023-06-04T05:47:30;12.15;;;7.35;;
52414;SDS011;38340;52.964;6.086;2023-06-04T05:49:56;14.10;;;7.10;;
52414;SDS011;38340;52.964;6.086;2023-06-04T05:52:22;12.55;;;7.38;;
52414;SDS011;38340;52.964;6.086;2023-06-04T05:54:48;11.60;;;7.57;;
52414;SDS011;38340;52.964;6.086;2023-06-04T05:57:14;11.30;;;8.20;;
52414;SDS011;38340;52.964;6.086;2023-06-04T05:59:40;12.68;;;7.03;;
52414;SDS011;38340;52.964;6.086;2023-06-04T06:02:06;11.27;;;7.60;;
52414;SDS011;38340;52.964;6.086;2023-06-04T06:04:32;8.63;;;6.82;;
52414;SDS011;38340;52.964;6.086;2023-06-04T06:06:58;11.40;;;7.53;;
52414;SDS011;38340;52.964;6.086;2023-06-04T06:09:23;13.95;;;6.97;;
52414;SDS011;38340;52.964;6.086;2023-06-04T06:11:49;10.77;;;7.50;;
52414;SDS011;38340;52.964;6.086;2023-06-04T06:14:15;10.38;;;7.80;;
52414;SDS011;38340;52.964;6.086;2023-06-04T06:16:40;16.63;;;7.50;;
52414;SDS011;38340;52.964;6.086;2023-06-04T06:19:06;11.68;;;7.97;;
52414;SDS011;38340;52.964;6.086;2023-06-04T06:21:32;17.35;;;8.02;;
52414;SDS011;38340;52.964;6.086;2023-06-04T06:23:57;13.38;;;8.15;;
52414;SDS011;38340;52.964;6.086;2023-06-04T06:26:24;14.00;;;8.38;;
52414;SDS011;38340;52.964;6.086;2023-06-04T06:28:50;10.80;;;8.10;;
52414;SDS011;38340;52.964;6.086;2023-06-04T06:31:16;13.60;;;8.43;;
52414;SDS011;38340;52.964;6.086;2023-06-04T06:33:41;13.85;;;8.73;;
52414;SDS011;38340;52.964;6.086;2023-06-04T06:36:07;15.77;;;8.55;;
52414;SDS011;38340;52.964;6.086;2023-06-04T06:38:36;10.45;;;7.88;;
52414;SDS011;38340;52.964;6.086;2023-06-04T06:41:02;12.30;;;7.55;;
52414;SDS011;38340;52.964;6.086;2023-06-04T06:43:27;11.43;;;7.70;;
52414;SDS011;38340;52.964;6.086;2023-06-04T06:45:53;14.65;;;7.88;;
52414;SDS011;38340;52.964;6.086;2023-06-04T06:48:18;11.35;;;7.63;;
52414;SDS011;38340;52.964;6.086;2023-06-04T06:50:44;13.45;;;6.53;;
52414;SDS011;38340;52.964;6.086;2023-06-04T06:53:10;8.77;;;6.25;;
52414;SDS011;38340;52.964;6.086;2023-06-04T06:55:36;8.52;;;6.43;;
52414;SDS011;38340;52.964;6.086;2023-06-04T06:58:01;9.38;;;6.30;;
52414;SDS011;38340;52.964;6.086;2023-06-04T07:00:27;8.52;;;5.35;;
52414;SDS011;38340;52.964;6.086;2023-06-04T07:02:53;10.55;;;6.00;;
52414;SDS011;38340;52.964;6.086;2023-06-04T07:05:19;7.55;;;5.35;;
52414;SDS011;38340;52.964;6.086;2023-06-04T07:07:44;7.47;;;5.40;;
52414;SDS011;38340;52.964;6.086;2023-06-04T07:10:11;11.13;;;5.90;;
52414;SDS011;38340;52.964;6.086;2023-06-04T07:12:38;11.25;;;5.57;;
52414;SDS011;38340;52.964;6.086;2023-06-04T07:15:04;10.10;;;6.45;;
52414;SDS011;38340;52.964;6.086;2023-06-04T07:17:31;9.80;;;6.15;;
52414;SDS011;38340;52.964;6.086;2023-06-04T07:19:57;9.55;;;5.80;;
52414;SDS011;38340;52.964;6.086;2023-06-04T07:22:23;9.05;;;5.00;;
52414;SDS011;38340;52.964;6.086;2023-06-04T07:24:49;6.88;;;4.95;;
52414;SDS011;38340;52.964;6.086;2023-06-04T07:27:15;8.20;;;5.22;;
52414;SDS011;38340;52.964;6.086;2023-06-04T07:29:43;7.32;;;4.88;;
52414;SDS011;38340;52.964;6.086;2023-06-04T07:32:09;8.43;;;4.28;;
52414;SDS011;38340;52.964;6.086;2023-06-04T07:34:36;7.25;;;4.30;;
52414;SDS011;38340;52.964;6.086;2023-06-04T07:37:03;9.25;;;5.25;;
52414;SDS011;38340;52.964;6.086;2023-06-04T07:39:29;9.52;;;5.15;;
52414;SDS011;38340;52.964;6.086;2023-06-04T07:41:55;8.02;;;4.57;;
52414;SDS011;38340;52.964;6.086;2023-06-04T07:44:20;8.43;;;5.15;;
52414;SDS011;38340;52.964;6.086;2023-06-04T07:46:46;9.40;;;4.95;;
52414;SDS011;38340;52.964;6.086;2023-06-04T07:49:12;10.15;;;4.50;;
52414;SDS011;38340;52.964;6.086;2023-06-04T07:51:37;7.53;;;4.78;;
52414;SDS011;38340;52.964;6.086;2023-06-04T07:54:03;8.13;;;4.75;;
52414;SDS011;38340;52.964;6.086;2023-06-04T07:56:29;7.68;;;4.35;;
52414;SDS011;38340;52.964;6.086;2023-06-04T07:58:54;9.27;;;4.38;;
52414;SDS011;38340;52.964;6.086;2023-06-04T08:01:20;10.25;;;4.65;;
52414;SDS011;38340;52.964;6.086;2023-06-04T08:03:46;6.47;;;4.13;;
52414;SDS011;38340;52.964;6.086;2023-06-04T08:06:12;9.68;;;4.43;;
52414;SDS011;38340;52.964;6.086;2023-06-04T08:08:44;6.22;;;3.83;;
52414;SDS011;38340;52.964;6.086;2023-06-04T08:11:13;7.97;;;4.68;;
52414;SDS011;38340;52.964;6.086;2023-06-04T08:13:40;8.90;;;4.32;;
52414;SDS011;38340;52.964;6.086;2023-06-04T08:16:06;7.18;;;4.10;;
52414;SDS011;38340;52.964;6.086;2023-06-04T08:18:32;8.02;;;3.85;;
52414;SDS011;38340;52.964;6.086;2023-06-04T08:20:58;7.10;;;3.95;;
52414;SDS011;38340;52.964;6.086;2023-06-04T08:23:24;7.57;;;3.85;;
52414;SDS011;38340;52.964;6.086;2023-06-04T08:25:49;8.60;;;4.53;;
52414;SDS011;38340;52.964;6.086;2023-06-04T08:28:15;7.40;;;4.50;;
52414;SDS011;38340;52.964;6.086;2023-06-04T08:30:44;6.13;;;3.80;;
52414;SDS011;38340;52.964;6.086;2023-06-04T08:33:11;8.52;;;3.90;;
52414;SDS011;38340;52.964;6.086;2023-06-04T08:35:36;5.93;;;3.80;;
52414;SDS011;38340;52.964;6.086;2023-06-04T08:38:02;10.02;;;4.32;;
52414;SDS011;38340;52.964;6.086;2023-06-04T08:40:28;10.40;;;4.15;;
52414;SDS011;38340;52.964;6.086;2023-06-04T08:42:55;6.47;;;3.83;;
52414;SDS011;38340;52.964;6.086;2023-06-04T08:45:24;10.52;;;4.43;;
52414;SDS011;38340;52.964;6.086;2023-06-04T08:47:53;9.07;;;4.47;;
52414;SDS011;38340;52.964;6.086;2023-06-04T08:50:20;6.88;;;3.78;;
52414;SDS011;38340;52.964;6.086;2023-06-04T08:52:54;4.18;;;3.30;;
52414;SDS011;38340;52.964;6.086;2023-06-04T08:55:21;6.55;;;3.63;;
52414;SDS011;38340;52.964;6.086;2023-06-04T08:57:49;8.02;;;4.00;;
52414;SDS011;38340;52.964;6.086;2023-06-04T09:00:16;7.13;;;3.47;;
52414;SDS011;38340;52.964;6.086;2023-06-04T09:02:43;9.80;;;4.10;;
52414;SDS011;38340;52.964;6.086;2023-06-04T09:05:10;5.28;;;3.75;;
52414;SDS011;38340;52.964;6.086;2023-06-04T09:07:47;7.65;;;3.83;;
52414;SDS011;38340;52.964;6.086;2023-06-04T09:10:18;5.07;;;3.72;;
52414;SDS011;38340;52.964;6.086;2023-06-04T09:12:46;7.13;;;4.10;;
52414;SDS011;38340;52.964;6.086;2023-06-04T09:15:13;5.72;;;3.80;;
52414;SDS011;38340;52.964;6.086;2023-06-04T09:17:39;6.55;;;3.90;;
52414;SDS011;38340;52.964;6.086;2023-06-04T09:20:05;5.47;;;3.95;;
52414;SDS011;38340;52.964;6.086;2023-06-04T09:22:37;7.88;;;4.10;;
52414;SDS011;38340;52.964;6.086;2023-06-04T09:25:06;7.80;;;3.92;;
52414;SDS011;38340;52.964;6.086;2023-06-04T09:27:43;4.72;;;3.85;;
52414;SDS011;38340;52.964;6.086;2023-06-04T09:30:09;8.00;;;4.25;;
52414;SDS011;38340;52.964;6.086;2023-06-04T09:32:35;6.28;;;3.70;;
52414;SDS011;38340;52.964;6.086;2023-06-04T09:35:11;6.05;;;4.10;;
52414;SDS011;38340;52.964;6.086;2023-06-04T09:37:41;6.90;;;3.85;;
52414;SDS011;38340;52.964;6.086;2023-06-04T09:40:08;6.82;;;4.18;;
52414;SDS011;38340;52.964;6.086;2023-06-04T09:42:47;8.05;;;4.20;;
52414;SDS011;38340;52.964;6.086;2023-06-04T09:45:29;8.15;;;4.00;;
52414;SDS011;38340;52.964;6.086;2023-06-04T09:47:57;6.32;;;3.85;;
52414;SDS011;38340;52.964;6.086;2023-06-04T09:50:29;5.68;;;4.05;;
52414;SDS011;38340;52.964;6.086;2023-06-04T09:53:18;9.55;;;4.55;;
52414;SDS011;38340;52.964;6.086;2023-06-04T09:55:59;9.13;;;4.40;;
52414;SDS011;38340;52.964;6.086;2023-06-04T09:58:29;4.97;;;4.10;;
52414;SDS011;38340;52.964;6.086;2023-06-04T10:00:56;7.30;;;4.22;;
52414;SDS011;38340;52.964;6.086;2023-06-04T10:03:36;8.45;;;4.28;;
52414;SDS011;38340;52.964;6.086;2023-06-04T10:06:02;5.57;;;3.75;;
52414;SDS011;38340;52.964;6.086;2023-06-04T10:08:30;7.13;;;4.00;;
52414;SDS011;38340;52.964;6.086;2023-06-04T10:11:01;6.22;;;4.00;;
52414;SDS011;38340;52.964;6.086;2023-06-04T10:13:29;5.50;;;3.65;;
52414;SDS011;38340;52.964;6.086;2023-06-04T10:15:57;7.53;;;3.90;;
52414;SDS011;38340;52.964;6.086;2023-06-04T10:18:24;8.63;;;4.20;;
52414;SDS011;38340;52.964;6.086;2023-06-04T10:20:52;4.93;;;3.92;;
52414;SDS011;38340;52.964;6.086;2023-06-04T10:23:20;6.10;;;3.70;;
52414;SDS011;38340;52.964;6.086;2023-06-04T10:25:48;8.98;;;4.05;;
52414;SDS011;38340;52.964;6.086;2023-06-04T10:28:15;8.00;;;4.05;;
52414;SDS011;38340;52.964;6.086;2023-06-04T10:30:45;6.90;;;4.10;;
52414;SDS011;38340;52.964;6.086;2023-06-04T10:33:11;4.88;;;3.80;;
52414;SDS011;38340;52.964;6.086;2023-06-04T10:35:38;6.20;;;3.80;;
52414;SDS011;38340;52.964;6.086;2023-06-04T10:38:11;4.95;;;3.53;;
52414;SDS011;38340;52.964;6.086;2023-06-04T10:40:41;5.13;;;3.70;;
52414;SDS011;38340;52.964;6.086;2023-06-04T10:43:08;5.85;;;3.50;;
52414;SDS011;38340;52.964;6.086;2023-06-04T10:45:39;3.67;;;3.28;;
52414;SDS011;38340;52.964;6.086;2023-06-04T10:48:06;6.07;;;3.53;;
52414;SDS011;38340;52.964;6.086;2023-06-04T10:50:33;6.07;;;4.05;;
52414;SDS011;38340;52.964;6.086;2023-06-04T10:53:00;4.82;;;3.78;;
52414;SDS011;38340;52.964;6.086;2023-06-04T10:55:30;5.55;;;3.50;;
52414;SDS011;38340;52.964;6.086;2023-06-04T10:58:00;5.60;;;4.07;;
52414;SDS011;38340;52.964;6.086;2023-06-04T11:00:42;4.95;;;4.03;;
52414;SDS011;38340;52.964;6.086;2023-06-04T11:03:11;5.15;;;3.83;;
52414;SDS011;38340;52.964;6.086;2023-06-04T11:05:38;6.47;;;4.20;;
52414;SDS011;38340;52.964;6.086;2023-06-04T11:08:08;6.47;;;4.10;;
52414;SDS011;38340;52.964;6.086;2023-06-04T11:10:44;5.35;;;4.20;;
52414;SDS011;38340;52.964;6.086;2023-06-04T11:13:10;6.95;;;4.15;;
52414;SDS011;38340;52.964;6.086;2023-06-04T11:15:37;6.85;;;3.88;;
52414;SDS011;38340;52.964;6.086;2023-06-04T11:18:04;11.50;;;4.30;;
52414;SDS011;38340;52.964;6.086;2023-06-04T11:20:30;5.03;;;3.85;;
52414;SDS011;38340;52.964;6.086;2023-06-04T11:22:56;5.63;;;3.38;;
52414;SDS011;38340;52.964;6.086;2023-06-04T11:25:26;4.07;;;3.22;;
52414;SDS011;38340;52.964;6.086;2023-06-04T11:27:54;9.05;;;3.70;;
52414;SDS011;38340;52.964;6.086;2023-06-04T11:30:20;4.55;;;3.65;;
52414;SDS011;38340;52.964;6.086;2023-06-04T11:32:46;3.97;;;3.20;;
52414;SDS011;38340;52.964;6.086;2023-06-04T11:35:12;5.78;;;3.35;;
52414;SDS011;38340;52.964;6.086;2023-06-04T11:37:38;4.00;;;3.40;;
52414;SDS011;38340;52.964;6.086;2023-06-04T11:40:25;5.97;;;3.33;;
52414;SDS011;38340;52.964;6.086;2023-06-04T11:42:52;6.28;;;3.80;;
52414;SDS011;38340;52.964;6.086;2023-06-04T11:45:18;3.90;;;3.15;;
52414;SDS011;38340;52.964;6.086;2023-06-04T11:47:49;5.60;;;3.50;;
52414;SDS011;38340;52.964;6.086;2023-06-04T11:50:16;4.88;;;3.42;;
52414;SDS011;38340;52.964;6.086;2023-06-04T11:52:42;4.80;;;3.25;;
52414;SDS011;38340;52.964;6.086;2023-06-04T11:55:09;4.68;;;3.40;;
52414;SDS011;38340;52.964;6.086;2023-06-04T11:57:38;7.47;;;3.70;;
52414;SDS011;38340;52.964;6.086;2023-06-04T12:00:04;4.18;;;3.30;;
52414;SDS011;38340;52.964;6.086;2023-06-04T12:02:49;6.10;;;3.40;;
52414;SDS011;38340;52.964;6.086;2023-06-04T12:05:17;7.07;;;3.50;;
52414;SDS011;38340;52.964;6.086;2023-06-04T12:07:44;4.50;;;3.80;;
52414;SDS011;38340;52.964;6.086;2023-06-04T12:10:11;5.07;;;3.40;;
52414;SDS011;38340;52.964;6.086;2023-06-04T12:12:37;5.25;;;3.47;;
52414;SDS011;38340;52.964;6.086;2023-06-04T12:15:05;6.80;;;3.72;;
52414;SDS011;38340;52.964;6.086;2023-06-04T12:17:32;4.82;;;3.53;;
52414;SDS011;38340;52.964;6.086;2023-06-04T12:19:58;4.30;;;3.03;;
52414;SDS011;38340;52.964;6.086;2023-06-04T12:22:24;5.25;;;3.75;;
52414;SDS011;38340;52.964;6.086;2023-06-04T12:24:54;4.43;;;3.50;;
52414;SDS011;38340;52.964;6.086;2023-06-04T12:27:21;4.90;;;3.25;;
52414;SDS011;38340;52.964;6.086;2023-06-04T12:32:24;5.28;;;3.60;;
52414;SDS011;38340;52.964;6.086;2023-06-04T12:34:50;6.00;;;3.47;;
52414;SDS011;38340;52.964;6.086;2023-06-04T12:37:16;5.78;;;3.72;;
52414;SDS011;38340;52.964;6.086;2023-06-04T12:39:42;5.28;;;3.33;;
52414;SDS011;38340;52.964;6.086;2023-06-04T12:42:08;4.38;;;3.72;;
52414;SDS011;38340;52.964;6.086;2023-06-04T12:44:38;8.25;;;3.80;;
52414;SDS011;38340;52.964;6.086;2023-06-04T12:47:05;4.50;;;3.47;;
52414;SDS011;38340;52.964;6.086;2023-06-04T12:49:31;6.57;;;3.30;;
52414;SDS011;38340;52.964;6.086;2023-06-04T12:51:57;4.00;;;3.60;;
52414;SDS011;38340;52.964;6.086;2023-06-04T12:54:23;5.07;;;3.60;;
52414;SDS011;38340;52.964;6.086;2023-06-04T12:56:49;5.13;;;3.58;;
52414;SDS011;38340;52.964;6.086;2023-06-04T12:59:15;4.47;;;3.63;;
52414;SDS011;38340;52.964;6.086;2023-06-04T13:01:42;5.18;;;3.95;;
52414;SDS011;38340;52.964;6.086;2023-06-04T13:04:07;6.38;;;4.15;;
52414;SDS011;38340;52.964;6.086;2023-06-04T13:06:34;5.47;;;3.72;;
52414;SDS011;38340;52.964;6.086;2023-06-04T13:09:03;7.03;;;4.03;;
52414;SDS011;38340;52.964;6.086;2023-06-04T13:11:43;4.32;;;3.60;;
52414;SDS011;38340;52.964;6.086;2023-06-04T13:14:09;3.92;;;3.53;;
52414;SDS011;38340;52.964;6.086;2023-06-04T13:16:36;5.55;;;3.90;;
52414;SDS011;38340;52.964;6.086;2023-06-04T13:19:05;7.10;;;3.97;;
52414;SDS011;38340;52.964;6.086;2023-06-04T13:21:31;5.35;;;3.47;;
52414;SDS011;38340;52.964;6.086;2023-06-04T13:23:57;5.28;;;3.80;;
52414;SDS011;38340;52.964;6.086;2023-06-04T13:26:23;4.75;;;3.83;;
52414;SDS011;38340;52.964;6.086;2023-06-04T13:28:49;5.15;;;3.80;;
52414;SDS011;38340;52.964;6.086;2023-06-04T13:31:14;4.78;;;3.90;;
52414;SDS011;38340;52.964;6.086;2023-06-04T13:33:40;4.25;;;3.58;;
52414;SDS011;38340;52.964;6.086;2023-06-04T13:36:06;4.32;;;3.80;;
52414;SDS011;38340;52.964;6.086;2023-06-04T13:38:32;4.35;;;3.75;;
52414;SDS011;38340;52.964;6.086;2023-06-04T13:40:58;6.35;;;3.88;;
52414;SDS011;38340;52.964;6.086;2023-06-04T13:43:24;9.45;;;4.00;;
52414;SDS011;38340;52.964;6.086;2023-06-04T13:45:50;6.95;;;3.92;;
52414;SDS011;38340;52.964;6.086;2023-06-04T13:48:16;6.40;;;4.15;;
52414;SDS011;38340;52.964;6.086;2023-06-04T13:50:41;6.65;;;3.60;;
52414;SDS011;38340;52.964;6.086;2023-06-04T13:53:08;6.72;;;3.67;;
52414;SDS011;38340;52.964;6.086;2023-06-04T13:55:34;6.47;;;4.15;;
52414;SDS011;38340;52.964;6.086;2023-06-04T13:57:59;5.78;;;3.72;;
52414;SDS011;38340;52.964;6.086;2023-06-04T14:00:25;4.85;;;3.60;;
52414;SDS011;38340;52.964;6.086;2023-06-04T14:02:52;5.00;;;3.70;;
52414;SDS011;38340;52.964;6.086;2023-06-04T14:05:20;4.13;;;3.60;;
52414;SDS011;38340;52.964;6.086;2023-06-04T14:07:46;5.97;;;4.28;;
52414;SDS011;38340;52.964;6.086;2023-06-04T14:10:11;6.85;;;3.30;;
52414;SDS011;38340;52.964;6.086;2023-06-04T14:12:38;6.15;;;3.67;;
52414;SDS011;38340;52.964;6.086;2023-06-04T14:15:05;6.15;;;3.78;;
52414;SDS011;38340;52.964;6.086;2023-06-04T14:17:33;6.90;;;3.45;;
52414;SDS011;38340;52.964;6.086;2023-06-04T14:19:59;6.15;;;4.07;;
52414;SDS011;38340;52.964;6.086;2023-06-04T14:22:26;4.03;;;3.63;;
52414;SDS011;38340;52.964;6.086;2023-06-04T14:24:51;8.93;;;3.88;;
52414;SDS011;38340;52.964;6.086;2023-06-04T14:27:17;5.57;;;3.72;;
52414;SDS011;38340;52.964;6.086;2023-06-04T14:29:43;6.53;;;3.70;;
52414;SDS011;38340;52.964;6.086;2023-06-04T14:32:08;6.47;;;4.03;;
52414;SDS011;38340;52.964;6.086;2023-06-04T14:34:34;4.22;;;3.38;;
52414;SDS011;38340;52.964;6.086;2023-06-04T14:37:00;4.78;;;3.80;;
52414;SDS011;38340;52.964;6.086;2023-06-04T14:39:26;6.53;;;3.60;;
52414;SDS011;38340;52.964;6.086;2023-06-04T14:41:52;5.82;;;3.70;;
52414;SDS011;38340;52.964;6.086;2023-06-04T14:44:18;4.28;;;3.60;;
52414;SDS011;38340;52.964;6.086;2023-06-04T14:46:45;6.95;;;3.42;;
52414;SDS011;38340;52.964;6.086;2023-06-04T14:49:11;4.57;;;3.70;;
52414;SDS011;38340;52.964;6.086;2023-06-04T14:51:36;9.15;;;3.75;;